Time;durP1;ratioP1;P1;durP2;ratioP2;P2;SDS_P1;SDS_P2;PMS_P1;PMS_P2;Temp;Humidity;BMP_temperature;BMP_pressure;BME280_temperature;BME280_humidity;BME280_pressure;Samples;Min_cycle;Max_cycle;Signal;HPM_P1;HPM_P2
2021/05/03 00:01:46;;;;;;;30.20;16.48;;;14.70;89.20;;;;;;5137189;28;20375;-39
2021/05/03 00:04:12;;;;;;;30.08;16.55;;;14.60;89.30;;;;;;5136947;27;20360;-40
2021/05/03 00:06:37;;;;;;;26.50;16.38;;;14.60;89.30;;;;;;5137112;28;20319;-39
2021/05/03 00:09:05;;;;;;;30.25;16.25;;;14.60;89.40;;;;;;5136880;27;20035;-39
2021/05/03 00:11:31;;;;;;;30.70;16.50;;;14.60;89.40;;;;;;5136995;28;20031;-44
2021/05/03 00:13:56;;;;;;;32.45;17.63;;;14.60;89.40;;;;;;5136859;27;20084;-39
2021/05/03 00:16:22;;;;;;;32.30;17.30;;;14.60;89.50;;;;;;5136924;28;20459;-43
2021/05/03 00:18:48;;;;;;;34.13;17.38;;;14.60;89.50;;;;;;5136717;27;20031;-40
2021/05/03 00:21:13;;;;;;;33.22;17.50;;;14.50;89.60;;;;;;5136934;28;20048;-44
2021/05/03 00:23:39;;;;;;;32.47;17.73;;;14.50;89.60;;;;;;5118522;28;20036;-39
2021/05/03 00:26:07;;;;;;;32.88;18.17;;;14.50;89.70;;;;;;5136789;28;20035;-43
2021/05/03 00:28:33;;;;;;;28.40;16.98;;;14.50;89.70;;;;;;5136526;27;20031;-39
2021/05/03 00:30:59;;;;;;;34.08;18.52;;;14.50;89.80;;;;;;5136831;28;20027;-48
2021/05/03 00:33:24;;;;;;;35.40;17.77;;;14.50;89.80;;;;;;5136439;27;20031;-44
2021/05/03 00:35:50;;;;;;;33.40;17.23;;;14.40;89.70;;;;;;5138324;27;20050;-39
2021/05/03 00:38:16;;;;;;;34.95;18.02;;;14.40;89.70;;;;;;5140448;27;20039;-39
2021/05/03 00:40:41;;;;;;;33.05;17.50;;;14.40;89.80;;;;;;5140668;27;20463;-46
2021/05/03 00:43:07;;;;;;;25.83;16.85;;;14.40;89.80;;;;;;5140210;27;20042;-43
2021/05/03 00:45:33;;;;;;;41.60;18.50;;;14.40;89.90;;;;;;5140595;27;20031;-44
2021/05/03 00:47:59;;;;;;;32.42;17.33;;;14.30;89.90;;;;;;5140349;27;20308;-43
2021/05/03 00:50:29;;;;;;;35.65;17.73;;;14.30;89.90;;;;;;5140393;27;20057;-39
2021/05/03 00:52:55;;;;;;;40.25;18.33;;;14.30;90.00;;;;;;5140018;27;20027;-44
2021/05/03 00:55:23;;;;;;;31.38;18.40;;;14.30;90.00;;;;;;5140280;27;20036;-39
2021/05/03 00:57:48;;;;;;;37.90;18.00;;;14.30;90.00;;;;;;5139710;27;20039;-39
2021/05/03 01:00:15;;;;;;;33.67;17.45;;;14.30;90.00;;;;;;5139907;27;20084;-39
2021/05/03 01:02:41;;;;;;;30.65;18.48;;;14.20;90.00;;;;;;5140006;27;20029;-39
2021/05/03 01:05:07;;;;;;;35.85;18.60;;;14.20;90.00;;;;;;5139630;27;20080;-39
2021/05/03 01:07:33;;;;;;;41.88;20.00;;;14.20;90.00;;;;;;5139962;27;20464;-43
2021/05/03 01:09:59;;;;;;;36.15;18.10;;;14.20;90.00;;;;;;5139998;27;20027;-39
2021/05/03 01:12:25;;;;;;;35.65;18.15;;;14.20;90.00;;;;;;5139827;27;20024;-39
2021/05/03 01:14:51;;;;;;;38.38;18.73;;;14.20;90.00;;;;;;5139671;27;20031;-43
2021/05/03 01:17:16;;;;;;;37.30;18.10;;;14.10;90.00;;;;;;5139625;27;20035;-43
2021/05/03 01:19:42;;;;;;;31.73;19.10;;;14.10;90.10;;;;;;5139509;27;20027;-43
2021/05/03 01:22:08;;;;;;;36.83;19.52;;;14.10;90.10;;;;;;5139478;27;20028;-44
2021/05/03 01:24:34;;;;;;;38.25;18.35;;;14.10;90.10;;;;;;5139638;27;20023;-39
2021/05/03 01:27:00;;;;;;;33.35;17.58;;;14.10;90.20;;;;;;5139371;27;20532;-38
2021/05/03 01:29:25;;;;;;;46.10;18.90;;;14.10;90.20;;;;;;5139589;27;20215;-47
2021/05/03 01:31:53;;;;;;;40.40;19.80;;;14.10;90.20;;;;;;5139555;27;20076;-46
2021/05/03 01:34:20;;;;;;;36.75;19.83;;;14.10;90.20;;;;;;5139399;27;20352;-38
2021/05/03 01:36:47;;;;;;;36.80;20.02;;;14.10;90.20;;;;;;5138741;27;20040;-48
2021/05/03 01:39:15;;;;;;;35.30;19.70;;;14.00;90.30;;;;;;5139236;27;20089;-44
2021/05/03 01:41:42;;;;;;;36.40;18.27;;;14.00;90.30;;;;;;5139435;27;20334;-39
2021/05/03 01:44:09;;;;;;;36.38;18.70;;;14.10;90.30;;;;;;5139006;27;20054;-48
2021/05/03 01:46:37;;;;;;;31.80;19.13;;;14.10;90.30;;;;;;5138913;27;20039;-39
2021/05/03 01:49:05;;;;;;;35.10;19.35;;;14.00;90.30;;;;;;5139064;27;20059;-44
2021/05/03 01:51:31;;;;;;;34.75;16.55;;;14.10;90.30;;;;;;5139342;27;20033;-44
2021/05/03 01:53:58;;;;;;;41.25;21.17;;;14.10;90.30;;;;;;5139041;27;20470;-47
2021/05/03 01:56:25;;;;;;;28.13;17.30;;;14.10;90.30;;;;;;5138958;27;20084;-39
2021/05/03 01:58:52;;;;;;;43.92;19.60;;;14.10;90.30;;;;;;5138469;27;20041;-39
2021/05/03 02:01:18;;;;;;;36.45;19.85;;;14.10;90.20;;;;;;5138998;27;20415;-44
2021/05/03 02:03:44;;;;;;;40.85;20.27;;;14.10;90.20;;;;;;5138620;27;20033;-39
2021/05/03 02:06:12;;;;;;;40.13;21.23;;;14.10;90.20;;;;;;5138996;27;20478;-44
2021/05/03 02:08:38;;;;;;;32.03;19.23;;;14.10;90.20;;;;;;5138736;27;20019;-43
2021/05/03 02:11:04;;;;;;;36.25;20.15;;;14.10;90.20;;;;;;5138800;27;20053;-43
2021/05/03 02:13:30;;;;;;;31.92;18.10;;;14.10;90.20;;;;;;5138307;27;20036;-43
2021/05/03 02:15:56;;;;;;;37.75;18.85;;;14.10;90.20;;;;;;5138622;27;20115;-39
2021/05/03 02:18:21;;;;;;;43.17;21.35;;;14.10;90.20;;;;;;5138148;27;20031;-43
2021/05/03 02:20:47;;;;;;;34.60;19.83;;;14.10;90.20;;;;;;5138468;27;20031;-43
2021/05/03 02:23:13;;;;;;;43.97;23.20;;;14.10;90.20;;;;;;5138349;27;20038;-43
2021/05/03 02:25:39;;;;;;;38.22;20.55;;;14.00;90.20;;;;;;5138466;27;20059;-43
2021/05/03 02:28:05;;;;;;;48.88;22.88;;;14.00;90.20;;;;;;5138152;27;20181;-45
2021/05/03 02:30:31;;;;;;;36.92;21.73;;;14.00;90.20;;;;;;5138416;27;20031;-39
2021/05/03 02:32:56;;;;;;;38.63;19.60;;;14.00;90.30;;;;;;5138090;27;20031;-44
2021/05/03 02:35:24;;;;;;;30.30;17.73;;;14.00;90.30;;;;;;5137755;27;20080;-45
2021/05/03 02:37:55;;;;;;;42.83;22.52;;;14.00;90.40;;;;;;5138108;27;20031;-40
2021/05/03 02:40:23;;;;;;;40.50;20.38;;;14.10;90.50;;;;;;5138356;27;20337;-46
2021/05/03 02:42:51;;;;;;;38.28;21.73;;;14.00;90.50;;;;;;5138261;27;20430;-46
2021/05/03 02:45:17;;;;;;;36.20;20.27;;;14.10;90.50;;;;;;5137919;27;20038;-40
2021/05/03 02:47:43;;;;;;;35.30;17.45;;;14.10;90.50;;;;;;5137853;27;20038;-45
2021/05/03 02:50:10;;;;;;;29.70;18.10;;;14.10;90.50;;;;;;5137933;27;20369;-40
2021/05/03 02:52:36;;;;;;;37.60;20.73;;;14.10;90.40;;;;;;5137695;27;20031;-47
2021/05/03 02:55:03;;;;;;;33.05;18.38;;;14.10;90.40;;;;;;5137739;27;20035;-45
2021/05/03 02:57:29;;;;;;;38.50;21.70;;;14.10;90.40;;;;;;5136791;27;20019;-40
2021/05/03 02:59:54;;;;;;;31.90;19.08;;;14.10;90.40;;;;;;5137452;27;20023;-40
2021/05/03 03:02:20;;;;;;;34.67;18.58;;;14.10;90.50;;;;;;5137397;27;20128;-40
2021/05/03 03:04:46;;;;;;;37.15;20.88;;;14.10;90.50;;;;;;5137486;27;20318;-40
2021/05/03 03:07:11;;;;;;;31.45;17.85;;;14.10;90.60;;;;;;5137314;27;20039;-44
2021/05/03 03:09:37;;;;;;;33.42;18.23;;;14.20;90.60;;;;;;5137444;27;20310;-44
2021/05/03 03:12:04;;;;;;;40.05;20.27;;;14.20;90.70;;;;;;5137629;27;20407;-46
2021/05/03 03:14:29;;;;;;;28.77;17.85;;;14.30;90.80;;;;;;5137688;27;20318;-44
2021/05/03 03:16:55;;;;;;;29.02;17.48;;;14.30;90.80;;;;;;5137645;27;20032;-40
2021/05/03 03:19:21;;;;;;;42.00;22.48;;;14.30;90.80;;;;;;5137388;27;20043;-41
2021/05/03 03:21:46;;;;;;;34.63;20.95;;;14.40;90.80;;;;;;5137783;27;20038;-46
2021/05/03 03:24:12;;;;;;;33.80;18.67;;;14.40;91.00;;;;;;5136859;27;20189;-40
2021/05/03 03:26:38;;;;;;;34.17;19.50;;;14.50;91.10;;;;;;5137114;27;20038;-40
2021/05/03 03:29:05;;;;;;;33.40;19.52;;;14.50;91.10;;;;;;5137061;27;20023;-40
2021/05/03 03:31:31;;;;;;;37.80;20.35;;;14.60;91.10;;;;;;5137559;27;20027;-40
2021/05/03 03:33:56;;;;;;;27.48;16.92;;;14.60;91.10;;;;;;5137104;27;20343;-44
2021/05/03 03:36:22;;;;;;;26.88;15.98;;;14.70;91.30;;;;;;5136752;27;20077;-44
2021/05/03 03:38:48;;;;;;;31.42;16.88;;;14.70;91.30;;;;;;5137409;27;20043;-44
2021/05/03 03:41:14;;;;;;;28.90;15.27;;;14.80;91.40;;;;;;5137429;27;20020;-44
2021/05/03 03:43:40;;;;;;;30.13;16.30;;;14.90;91.50;;;;;;5137005;27;20030;-44
2021/05/03 03:46:06;;;;;;;26.95;15.20;;;15.00;91.50;;;;;;5137281;27;20027;-40
2021/05/03 03:48:31;;;;;;;30.67;15.48;;;15.10;91.50;;;;;;5137162;27;20136;-44
2021/05/03 03:50:57;;;;;;;23.30;13.75;;;15.20;91.40;;;;;;5137243;28;20391;-42
2021/05/03 03:53:23;;;;;;;25.65;14.90;;;15.30;91.30;;;;;;5137055;27;20289;-43
2021/05/03 03:55:49;;;;;;;24.55;13.95;;;15.30;91.30;;;;;;5137160;28;20031;-38
2021/05/03 03:58:14;;;;;;;22.75;12.23;;;15.40;91.10;;;;;;5136611;27;20034;-43
2021/05/03 04:00:40;;;;;;;26.45;13.57;;;15.50;90.90;;;;;;5137043;28;20480;-43
2021/05/03 04:03:09;;;;;;;22.67;12.27;;;15.60;90.90;;;;;;5136743;27;20394;-43
2021/05/03 04:08:24;;;;;;;17.83;9.75;;;15.80;90.40;;;;;;5136552;28;20130;-39
2021/05/03 04:21:35;;;;;;;20.02;7.80;;;16.30;86.70;;;;;;5141195;27;20050;-43
2021/05/03 04:26:35;;;;;;;12.80;7.57;;;16.40;85.00;;;;;;5140834;27;20027;-39
2021/05/03 04:29:01;;;;;;;17.38;8.55;;;16.50;85.10;;;;;;5140419;27;20035;-39
2021/05/03 04:31:27;;;;;;;13.60;7.55;;;16.50;83.70;;;;;;5140626;27;20066;-43
2021/05/03 04:33:53;;;;;;;12.68;6.82;;;16.60;83.70;;;;;;5140460;27;20035;-39
2021/05/03 04:36:20;;;;;;;12.13;7.53;;;16.60;82.90;;;;;;5139939;27;20043;-43
2021/05/03 04:38:46;;;;;;;12.63;7.03;;;16.60;82.70;;;;;;5140048;27;20027;-40
2021/05/03 04:41:12;;;;;;;13.13;7.00;;;16.70;82.20;;;;;;5140253;27;20122;-44
2021/05/03 04:43:38;;;;;;;11.93;7.22;;;16.70;82.20;;;;;;5140222;27;20054;-40
2021/05/03 04:46:04;;;;;;;11.75;7.00;;;16.80;82.60;;;;;;5140331;27;20456;-40
2021/05/03 04:48:30;;;;;;;10.82;6.78;;;16.80;81.40;;;;;;5140051;27;20311;-47
2021/05/03 04:50:57;;;;;;;11.30;6.82;;;16.90;80.30;;;;;;5140390;27;20034;-45
2021/05/03 04:53:23;;;;;;;9.32;5.97;;;16.90;78.90;;;;;;5139651;27;20031;-40
2021/05/03 04:55:49;;;;;;;8.20;5.53;;;16.90;79.30;;;;;;5140296;27;20070;-43
2021/05/03 04:58:15;;;;;;;9.20;5.68;;;17.00;77.10;;;;;;5140230;27;20386;-40
2021/05/03 05:00:41;;;;;;;9.85;5.38;;;17.00;77.60;;;;;;5121410;27;20113;-44
2021/05/03 05:03:07;;;;;;;7.75;5.55;;;17.00;76.80;;;;;;5140058;27;20114;-40
2021/05/03 05:05:33;;;;;;;15.98;5.97;;;17.10;76.80;;;;;;5140171;27;20355;-43
2021/05/03 05:07:59;;;;;;;8.65;5.70;;;17.10;76.70;;;;;;5139576;27;20059;-49
2021/05/03 05:10:25;;;;;;;7.75;5.28;;;17.20;76.00;;;;;;5139841;27;20057;-46
2021/05/03 05:12:51;;;;;;;13.15;5.57;;;17.20;76.60;;;;;;5139873;27;20081;-43
2021/05/03 05:15:17;;;;;;;7.53;5.55;;;17.30;76.00;;;;;;5139888;27;20051;-41
2021/05/03 05:17:44;;;;;;;8.98;5.22;;;17.30;75.60;;;;;;5139529;27;20114;-41
2021/05/03 05:20:10;;;;;;;12.77;6.30;;;17.40;75.30;;;;;;5139400;27;20023;-46
2021/05/03 05:22:39;;;;;;;8.88;5.18;;;17.50;74.90;;;;;;5139085;27;20035;-46
2021/05/03 05:25:09;;;;;;;8.60;5.55;;;17.50;74.10;;;;;;5139440;27;20098;-45
2021/05/03 05:27:35;;;;;;;10.52;5.68;;;17.70;74.20;;;;;;5139119;27;20126;-43
2021/05/03 05:30:01;;;;;;;12.25;4.90;;;17.70;73.50;;;;;;5138484;27;20024;-46
2021/05/03 05:32:26;;;;;;;8.77;4.85;;;17.70;72.60;;;;;;5139493;27;20104;-48
2021/05/03 05:34:52;;;;;;;6.97;4.57;;;17.80;71.60;;;;;;5133453;27;20030;-47
2021/05/03 05:37:18;;;;;;;7.72;4.50;;;17.70;70.90;;;;;;5138810;27;20042;-41
2021/05/03 05:39:43;;;;;;;7.20;4.95;;;17.70;71.20;;;;;;5138902;27;20034;-42
2021/05/03 05:42:09;;;;;;;8.00;4.40;;;17.70;70.70;;;;;;5138723;27;20314;-45
2021/05/03 05:44:35;;;;;;;11.02;4.30;;;17.70;69.80;;;;;;5138510;27;20098;-50
2021/05/03 05:47:01;;;;;;;11.27;4.60;;;17.70;69.20;;;;;;5138731;27;20023;-46
2021/05/03 05:49:27;;;;;;;8.02;4.30;;;17.60;69.70;;;;;;5138681;27;20031;-44
2021/05/03 05:51:52;;;;;;;7.22;4.53;;;17.60;69.50;;;;;;5119948;27;20062;-45
2021/05/03 05:54:18;;;;;;;7.45;4.63;;;17.50;69.90;;;;;;5135130;27;20326;-46
2021/05/03 05:56:44;;;;;;;8.10;4.95;;;17.50;69.20;;;;;;5137301;27;20027;-44
2021/05/03 05:59:10;;;;;;;8.77;4.90;;;17.50;69.60;;;;;;5136764;27;20069;-42
2021/05/03 06:01:36;;;;;;;6.93;4.35;;;17.50;69.60;;;;;;5138565;27;20068;-42
2021/05/03 06:04:01;;;;;;;10.82;4.68;;;17.50;68.80;;;;;;5138034;27;20031;-42
2021/05/03 06:06:27;;;;;;;6.32;4.30;;;17.40;68.70;;;;;;5138137;27;20321;-44
2021/05/03 06:08:53;;;;;;;8.25;4.78;;;17.30;68.90;;;;;;5138106;27;20031;-48
2021/05/03 06:11:19;;;;;;;7.60;4.95;;;17.30;69.20;;;;;;5134063;27;20473;-43
2021/05/03 06:13:44;;;;;;;10.38;5.05;;;17.20;69.40;;;;;;5137711;27;20035;-44
2021/05/03 06:16:10;;;;;;;9.15;5.00;;;17.10;69.80;;;;;;5137828;27;20030;-42
2021/05/03 06:18:36;;;;;;;7.00;4.72;;;17.10;70.40;;;;;;5137775;27;20062;-45
2021/05/03 06:21:01;;;;;;;11.95;6.65;;;17.10;70.50;;;;;;5137740;27;20038;-42
2021/05/03 06:23:27;;;;;;;13.13;6.90;;;17.00;70.20;;;;;;5137630;27;20066;-44
2021/05/03 06:25:53;;;;;;;8.02;5.00;;;17.00;70.60;;;;;;5137299;27;20329;-42
2021/05/03 06:28:21;;;;;;;8.52;4.88;;;17.00;70.80;;;;;;5137382;27;20349;-46
2021/05/03 06:30:46;;;;;;;10.48;5.40;;;17.00;70.70;;;;;;5137616;27;20039;-45
2021/05/03 06:33:12;;;;;;;6.22;4.63;;;17.00;71.10;;;;;;5137350;27;20046;-46
2021/05/03 06:35:38;;;;;;;5.70;4.70;;;17.00;71.10;;;;;;5137187;27;20047;-44
2021/05/03 06:38:06;;;;;;;7.55;4.55;;;17.00;71.30;;;;;;5137362;27;20043;-44
2021/05/03 06:40:32;;;;;;;14.13;4.93;;;17.00;71.40;;;;;;5137503;27;20111;-45
2021/05/03 06:42:58;;;;;;;9.38;4.47;;;17.00;71.70;;;;;;5137131;27;20114;-43
2021/05/03 06:45:24;;;;;;;7.55;4.47;;;17.00;71.10;;;;;;5137976;27;20485;-48
2021/05/03 06:47:50;;;;;;;7.20;4.15;;;17.00;70.00;;;;;;5136758;27;20043;-43
2021/05/03 06:50:17;;;;;;;6.93;4.13;;;17.00;69.30;;;;;;5137455;27;20088;-47
2021/05/03 06:52:46;;;;;;;5.53;3.58;;;17.00;68.70;;;;;;5136640;27;20294;-43
2021/05/03 06:55:13;;;;;;;12.23;4.88;;;17.10;68.70;;;;;;5136363;27;20053;-44
2021/05/03 06:57:40;;;;;;;9.98;4.22;;;17.10;69.00;;;;;;5137240;27;20031;-42
2021/05/03 07:00:07;;;;;;;6.18;3.75;;;17.10;68.30;;;;;;5136754;27;20042;-42
2021/05/03 07:02:33;;;;;;;6.75;3.80;;;17.10;67.60;;;;;;5137004;27;20043;-41
2021/05/03 07:04:59;;;;;;;11.52;4.45;;;17.10;66.90;;;;;;5132421;27;20032;-45
2021/05/03 07:07:25;;;;;;;8.40;4.22;;;17.20;66.90;;;;;;5136878;27;20031;-43
2021/05/03 07:09:50;;;;;;;9.68;3.80;;;17.20;67.00;;;;;;5136045;27;20075;-43
2021/05/03 07:12:19;;;;;;;6.45;3.63;;;17.20;67.10;;;;;;5135487;27;20034;-43
2021/05/03 07:14:45;;;;;;;5.03;2.90;;;17.30;66.30;;;;;;5136306;27;20323;-44
2021/05/03 07:17:11;;;;;;;6.22;3.78;;;17.40;66.10;;;;;;5136388;27;20046;-44
2021/05/03 07:19:37;;;;;;;5.75;3.35;;;17.50;64.20;;;;;;5135482;27;20039;-45
2021/05/03 07:22:05;;;;;;;3.90;3.13;;;17.50;63.40;;;;;;5136576;27;20102;-45
2021/05/03 07:24:31;;;;;;;4.80;3.90;;;17.60;62.80;;;;;;5136257;27;20315;-44
2021/05/03 07:26:57;;;;;;;10.60;3.17;;;17.60;62.40;;;;;;5136634;27;20137;-41
2021/05/03 07:29:23;;;;;;;5.50;2.80;;;17.60;62.00;;;;;;5136335;27;20385;-41
2021/05/03 07:31:49;;;;;;;7.50;3.20;;;17.60;61.90;;;;;;5136630;27;20038;-42
2021/05/03 07:34:15;;;;;;;3.72;2.63;;;17.60;60.70;;;;;;5136506;27;20031;-41
2021/05/03 07:36:41;;;;;;;16.02;6.22;;;17.60;59.30;;;;;;5136242;27;20134;-41
2021/05/03 07:39:07;;;;;;;6.32;2.58;;;17.60;60.30;;;;;;5135937;27;20031;-44
2021/05/03 07:41:34;;;;;;;5.28;2.40;;;17.60;59.60;;;;;;5136903;27;20463;-44
2021/05/03 07:44:00;;;;;;;7.70;3.75;;;17.60;59.10;;;;;;5135872;27;20027;-41
2021/05/03 07:46:27;;;;;;;11.05;2.60;;;17.60;59.60;;;;;;5136611;27;20399;-42
2021/05/03 07:48:58;;;;;;;5.05;2.42;;;17.60;60.80;;;;;;5136269;27;20084;-41
2021/05/03 07:51:24;;;;;;;4.07;2.80;;;17.70;59.70;;;;;;5136743;27;20413;-46
2021/05/03 07:53:51;;;;;;;4.90;2.55;;;17.70;58.70;;;;;;5136202;27;20048;-41
2021/05/03 07:56:17;;;;;;;3.33;2.28;;;17.60;58.30;;;;;;5136050;28;20323;-44
2021/05/03 07:58:43;;;;;;;4.93;2.50;;;17.60;58.20;;;;;;5136205;28;20034;-41
2021/05/03 08:01:10;;;;;;;6.15;3.08;;;17.60;58.70;;;;;;5136756;28;20074;-41
2021/05/03 08:03:38;;;;;;;7.60;2.40;;;17.60;58.20;;;;;;5135980;28;20111;-44
2021/05/03 08:06:05;;;;;;;4.25;2.30;;;17.50;58.10;;;;;;5136722;28;20394;-44
2021/05/03 08:08:31;;;;;;;5.55;2.70;;;17.50;57.80;;;;;;5136368;28;20065;-41
2021/05/03 08:10:57;;;;;;;4.80;2.42;;;17.50;58.00;;;;;;5136597;28;20315;-41
2021/05/03 08:13:23;;;;;;;10.35;2.72;;;17.50;58.10;;;;;;5135900;28;20437;-42
2021/05/03 08:15:51;;;;;;;12.77;2.80;;;17.60;58.30;;;;;;5136300;28;20038;-44
2021/05/03 08:18:17;;;;;;;6.53;2.92;;;17.60;58.60;;;;;;5135274;28;20069;-44
2021/05/03 08:20:42;;;;;;;6.32;2.58;;;17.70;58.20;;;;;;5136263;28;20391;-43
2021/05/03 08:23:09;;;;;;;2.80;2.30;;;17.70;57.60;;;;;;5135579;28;20031;-43
2021/05/03 08:25:36;;;;;;;4.80;2.58;;;17.70;58.10;;;;;;5136146;28;20034;-43
2021/05/03 08:28:02;;;;;;;2.38;2.03;;;17.70;58.40;;;;;;5130949;28;20418;-42
2021/05/03 08:30:28;;;;;;;5.18;2.20;;;17.80;56.90;;;;;;5136129;28;20102;-46
2021/05/03 08:32:53;;;;;;;8.32;2.50;;;17.80;57.50;;;;;;5135120;28;20031;-43
2021/05/03 08:35:20;;;;;;;2.72;1.80;;;17.90;56.90;;;;;;5135564;28;20084;-42
2021/05/03 08:37:46;;;;;;;4.93;2.47;;;17.90;56.20;;;;;;5135307;28;20088;-45
2021/05/03 08:40:15;;;;;;;4.18;2.60;;;18.00;55.50;;;;;;5135963;28;20051;-45
2021/05/03 08:42:42;;;;;;;5.03;2.42;;;18.00;56.10;;;;;;5135351;28;20027;-41
2021/05/03 08:45:08;;;;;;;3.78;2.80;;;18.10;56.10;;;;;;5135994;28;20038;-41
2021/05/03 08:47:38;;;;;;;3.22;2.28;;;18.10;54.70;;;;;;5135508;28;20387;-43
2021/05/03 08:50:18;;;;;;;2.42;2.10;;;18.10;54.60;;;;;;5135556;28;20279;-43
2021/05/03 08:52:46;;;;;;;3.08;2.03;;;18.20;53.70;;;;;;5135301;28;20036;-45
2021/05/03 08:55:13;;;;;;;4.82;2.10;;;18.20;53.20;;;;;;5135478;27;20486;-42
2021/05/03 08:57:43;;;;;;;9.70;2.50;;;18.30;53.60;;;;;;5138688;27;20296;-41
2021/05/03 09:00:12;;;;;;;4.82;2.03;;;18.30;53.90;;;;;;5139369;27;20031;-41
2021/05/03 09:02:39;;;;;;;4.32;2.53;;;18.30;54.20;;;;;;5138424;27;20043;-41
2021/05/03 09:05:06;;;;;;;2.85;2.15;;;18.30;53.90;;;;;;5139414;27;20050;-42
2021/05/03 09:07:31;;;;;;;4.82;2.40;;;18.40;53.60;;;;;;5138768;27;20023;-42
2021/05/03 09:09:57;;;;;;;5.38;2.05;;;18.40;53.70;;;;;;5139316;27;20042;-41
2021/05/03 09:12:24;;;;;;;3.70;2.30;;;18.40;53.10;;;;;;5139087;27;20027;-43
2021/05/03 09:15:02;;;;;;;6.30;2.55;;;18.40;53.60;;;;;;5139115;27;20031;-41
2021/05/03 09:17:30;;;;;;;4.40;2.33;;;18.50;53.20;;;;;;5138488;27;20031;-41
2021/05/03 09:19:58;;;;;;;7.72;3.17;;;18.60;53.20;;;;;;5136116;27;20057;-42
2021/05/03 09:22:25;;;;;;;4.20;1.80;;;18.70;53.00;;;;;;5138892;27;20015;-42
2021/05/03 09:24:51;;;;;;;4.75;1.98;;;18.80;52.20;;;;;;5139266;27;20031;-42
2021/05/03 09:27:20;;;;;;;2.83;1.88;;;18.90;51.90;;;;;;5119509;27;20051;-46
2021/05/03 09:29:48;;;;;;;4.55;1.90;;;19.00;51.60;;;;;;5139275;27;20034;-42
2021/05/03 09:32:20;;;;;;;4.50;2.00;;;19.10;51.60;;;;;;5139129;27;20412;-42
2021/05/03 09:34:53;;;;;;;5.72;2.33;;;19.20;51.70;;;;;;5139291;27;20315;-44
2021/05/03 09:37:22;;;;;;;6.82;2.30;;;19.30;52.30;;;;;;5097748;28;20134;-42
2021/05/03 09:40:03;;;;;;;3.13;2.28;;;19.40;51.40;;;;;;5097645;28;20333;-46
2021/05/03 09:42:51;;;;;;;4.78;2.05;;;19.40;51.20;;;;;;5097648;28;20032;-46
2021/05/03 09:45:23;;;;;;;3.38;2.40;;;19.40;51.80;;;;;;5097684;28;20024;-43
2021/05/03 09:47:54;;;;;;;3.70;2.22;;;19.30;51.50;;;;;;5097532;28;20107;-42
2021/05/03 09:50:22;;;;;;;4.32;2.20;;;19.30;51.50;;;;;;5096413;28;20020;-42
2021/05/03 09:53:12;;;;;;;3.83;2.10;;;19.20;51.50;;;;;;5097717;28;20032;-44
2021/05/03 09:55:48;;;;;;;2.00;1.90;;;19.20;51.50;;;;;;5091031;28;20032;-42
2021/05/03 09:58:23;;;;;;;6.22;2.45;;;19.10;52.20;;;;;;5096896;28;20043;-44
2021/05/03 10:00:56;;;;;;;4.28;2.15;;;19.20;52.50;;;;;;5097389;28;20032;-43
2021/05/03 10:03:31;;;;;;;4.45;2.65;;;19.10;52.40;;;;;;5096969;28;20031;-41
2021/05/03 10:05:58;;;;;;;7.65;2.92;;;19.10;52.70;;;;;;5097600;28;20103;-42
2021/05/03 10:08:24;;;;;;;6.20;2.58;;;19.10;52.90;;;;;;5096441;28;20461;-43
2021/05/03 10:10:52;;;;;;;4.88;2.65;;;19.10;52.80;;;;;;5097847;28;20333;-45
2021/05/03 10:13:19;;;;;;;7.78;2.80;;;19.10;52.70;;;;;;5097245;28;20044;-42
2021/05/03 10:15:45;;;;;;;8.10;2.70;;;19.10;52.30;;;;;;5097272;28;20024;-46
2021/05/03 10:18:16;;;;;;;4.22;2.67;;;19.10;52.50;;;;;;5096846;28;20066;-42
2021/05/03 10:20:43;;;;;;;4.63;2.30;;;19.10;52.80;;;;;;5096147;28;20061;-44
2021/05/03 10:23:10;;;;;;;6.82;2.45;;;19.00;52.30;;;;;;5096253;28;20046;-43
2021/05/03 10:25:36;;;;;;;9.18;2.78;;;19.00;52.70;;;;;;5097192;28;20031;-42
2021/05/03 10:28:01;;;;;;;7.10;2.40;;;19.00;52.50;;;;;;5096599;28;20036;-41
2021/05/03 10:30:28;;;;;;;3.42;2.10;;;19.00;52.40;;;;;;5096875;28;20308;-41
2021/05/03 10:33:05;;;;;;;5.22;2.20;;;18.90;52.30;;;;;;5096448;28;20040;-43
2021/05/03 10:35:33;;;;;;;6.10;3.00;;;18.80;52.50;;;;;;5107296;27;20088;-42
2021/05/03 10:38:00;;;;;;;4.78;2.50;;;18.70;52.00;;;;;;5137402;27;20338;-44
2021/05/03 10:40:26;;;;;;;11.35;2.40;;;18.50;51.80;;;;;;5119540;27;20031;-41
2021/05/03 10:43:01;;;;;;;4.03;2.40;;;18.20;52.10;;;;;;5137286;27;20027;-42
2021/05/03 10:45:50;;;;;;;4.15;2.55;;;18.00;52.30;;;;;;5137655;27;20034;-41
2021/05/03 10:48:29;;;;;;;5.65;2.47;;;17.80;53.10;;;;;;5137140;27;20023;-44
2021/05/03 10:50:56;;;;;;;3.42;2.50;;;17.60;54.50;;;;;;5137869;27;20035;-41
2021/05/03 10:53:24;;;;;;;4.88;2.80;;;17.40;54.70;;;;;;5137283;27;20076;-41
2021/05/03 10:55:56;;;;;;;6.43;2.60;;;17.30;54.80;;;;;;5137573;27;20023;-41
2021/05/03 10:58:22;;;;;;;3.42;2.50;;;17.20;55.50;;;;;;5136842;27;20039;-41
2021/05/03 11:01:04;;;;;;;3.15;2.38;;;17.00;55.50;;;;;;5133651;27;20019;-40
2021/05/03 11:04:02;;;;;;;2.88;2.40;;;16.80;56.40;;;;;;5136860;27;20053;-41
2021/05/03 11:06:57;;;;;;;4.97;2.90;;;16.70;56.20;;;;;;5137016;27;20042;-41
2021/05/03 11:09:27;;;;;;;6.00;2.83;;;16.60;57.30;;;;;;5136786;27;20041;-39
2021/05/03 11:11:53;;;;;;;3.05;2.60;;;16.40;57.90;;;;;;5137006;27;20312;-42
2021/05/03 11:14:22;;;;;;;6.50;2.83;;;16.20;58.30;;;;;;5136601;27;20035;-42
2021/05/03 11:16:53;;;;;;;6.55;3.22;;;16.10;58.60;;;;;;5136793;27;20023;-47
2021/05/03 11:22:19;;;;;;;8.38;3.60;;;15.90;59.40;;;;;;5136409;27;20360;-43
2021/05/03 11:24:53;;;;;;;3.28;2.55;;;15.70;60.20;;;;;;5136518;27;20073;-43
2021/05/03 11:28:09;;;;;;;6.32;2.60;;;15.60;59.90;;;;;;5136268;27;20039;-42
2021/05/03 11:30:41;;;;;;;5.15;3.20;;;15.50;60.60;;;;;;5092375;27;20031;-46
2021/05/03 11:33:23;;;;;;;3.78;3.00;;;15.40;61.60;;;;;;5136749;27;20162;-48
2021/05/03 11:36:01;;;;;;;5.93;3.58;;;15.30;61.80;;;;;;5136276;27;20379;-45
2021/05/03 11:46:34;;;;;;;13.68;3.35;;;15.30;63.80;;;;;;5137142;27;20030;-46
2021/05/03 11:49:13;;;;;;;6.47;3.10;;;15.40;63.80;;;;;;5136814;27;20368;-42
2021/05/03 11:51:43;;;;;;;4.68;3.05;;;15.50;64.00;;;;;;5137205;27;20110;-47
2021/05/03 11:54:25;;;;;;;12.82;7.82;;;15.60;63.30;;;;;;5136574;28;20427;-41
2021/05/03 11:57:14;;;;;;;13.05;4.28;;;15.70;62.90;;;;;;5136675;28;20035;-47
2021/05/03 11:59:39;;;;;;;3.78;2.60;;;15.80;61.90;;;;;;5136811;28;20027;-42
2021/05/03 12:02:10;;;;;;;7.15;2.75;;;15.90;62.20;;;;;;5136057;28;20031;-42
2021/05/03 12:04:44;;;;;;;11.63;3.40;;;16.00;60.90;;;;;;5136586;28;20314;-44
2021/05/03 12:07:25;;;;;;;5.43;3.00;;;16.10;60.70;;;;;;5135655;28;20118;-42
2021/05/03 12:10:05;;;;;;;2.55;2.35;;;16.20;59.40;;;;;;5136918;28;20028;-44
2021/05/03 12:12:35;;;;;;;7.43;2.80;;;16.40;59.70;;;;;;5136567;28;20327;-43
2021/05/03 12:15:02;;;;;;;2.70;2.25;;;16.60;59.40;;;;;;5136663;28;20015;-42
2021/05/03 12:17:30;;;;;;;2.70;2.25;;;16.90;58.90;;;;;;5117698;28;20039;-46
2021/05/03 12:20:14;;;;;;;4.68;2.20;;;17.20;56.80;;;;;;5136253;28;20019;-48
2021/05/03 12:22:56;;;;;;;5.03;2.28;;;17.60;55.90;;;;;;5136418;28;20442;-44
2021/05/03 12:25:21;;;;;;;4.57;2.10;;;17.90;54.70;;;;;;5136588;28;20406;-42
2021/05/03 12:27:47;;;;;;;2.78;1.92;;;18.10;54.30;;;;;;5135987;28;20035;-42
2021/05/03 12:30:13;;;;;;;9.52;2.10;;;18.30;52.70;;;;;;5137529;27;20042;-45
2021/05/03 12:32:41;;;;;;;5.22;2.35;;;18.50;52.00;;;;;;5140204;27;20038;-49
2021/05/03 12:35:12;;;;;;;8.98;2.45;;;18.60;52.20;;;;;;5140341;27;20291;-45
2021/05/03 12:37:39;;;;;;;5.25;2.15;;;18.80;51.50;;;;;;5139475;27;20043;-43
2021/05/03 12:40:13;;;;;;;1.95;1.75;;;19.10;50.90;;;;;;5140441;27;20076;-42
2021/05/03 12:42:40;;;;;;;3.63;2.25;;;19.30;50.20;;;;;;5139888;27;20035;-42
2021/05/03 12:45:27;;;;;;;5.72;1.88;;;19.50;50.30;;;;;;5140112;27;20019;-45
2021/05/03 12:48:07;;;;;;;3.47;2.10;;;19.80;50.10;;;;;;5139913;27;20058;-46
2021/05/03 12:56:11;;;;;;;3.03;1.67;;;20.70;47.50;;;;;;5140009;27;20083;-43
2021/05/03 13:01:37;;;;;;;5.65;2.13;;;20.80;45.70;;;;;;5139868;27;20023;-48
2021/05/03 13:04:19;;;;;;;6.75;2.63;;;21.00;46.00;;;;;;5139582;27;20323;-45
2021/05/03 13:07:15;;;;;;;2.42;1.50;;;21.10;45.80;;;;;;5121275;27;20019;-48
2021/05/03 13:24:28;;;;;;;1.65;1.15;;;22.00;40.20;;;;;;5139366;27;20061;-44
2021/05/03 13:29:41;;;;;;;3.13;1.70;;;22.00;40.70;;;;;;5139070;27;20050;-43
2021/05/03 13:32:08;;;;;;;7.10;1.35;;;22.00;39.80;;;;;;5139015;27;20131;-46
2021/05/03 13:34:34;;;;;;;3.83;1.60;;;22.10;40.00;;;;;;5138891;27;20023;-46
2021/05/03 13:37:00;;;;;;;1.80;1.35;;;22.10;39.40;;;;;;5138272;27;20057;-47